Time,TemperatureF,DewpointF,PressureIn,WindDirection,WindDirectionDegrees,WindSpeedMPH,WindSpeedGustMPH,Humidity,HourlyPrecipIn,Conditions,Clouds,dailyrainin,SoftwareType,DateUTC
2013-07-22 00:01:00,73.6,71.4,29.83,NNE,16,0.0,0.0,93,0.00,,,0.00,VWS V13.01,2013-07-22 05:01:00,
2013-07-22 00:06:00,73.6,71.7,29.83,NE,36,0.0,2.7,94,0.00,,,0.00,VWS V13.01,2013-07-22 05:06:00,
2013-07-22 00:11:00,73.6,71.4,29.83,NE,36,0.0,0.0,93,0.00,,,0.00,VWS V13.01,2013-07-22 05:11:00,
2013-07-22 00:16:00,73.4,71.6,29.83,NE,36,0.0,0.0,94,0.00,,,0.00,VWS V13.01,2013-07-22 05:16:00,
2013-07-22 00:21:00,73.4,71.6,29.83,NE,36,0.0,0.0,94,0.00,,,0.00,VWS V13.01,2013-07-22 05:21:00,
2013-07-22 00:26:00,73.4,71.6,29.83,NNE,27,0.0,0.0,94,0.00,,,0.00,VWS V13.01,2013-07-22 05:26:00,
2013-07-22 00:31:00,73.4,71.2,29.83,NNE,27,0.0,0.0,93,0.00,,,0.00,VWS V13.01,2013-07-22 05:31:00,
2013-07-22 00:36:00,73.2,71.1,29.83,NNE,27,0.0,0.0,93,0.00,,,0.00,VWS V13.01,2013-07-22 05:36:00,
2013-07-22 00:41:00,73.2,71.4,29.83,NNE,27,0.0,0.0,94,0.00,,,0.00,VWS V13.01,2013-07-22 05:41:00,
2013-07-22 00:46:00,73.2,71.4,29.83,NNE,27,0.0,0.0,94,0.00,,,0.00,VWS V13.01,2013-07-22 05:46:00,
2013-07-22 00:51:00,73.0,71.5,29.83,NNE,27,0.0,0.0,95,0.00,,,0.00,VWS V13.01,2013-07-22 05:51:00,
2013-07-22 00:55:00,73.0,71.5,29.83,NNE,27,0.0,0.0,95,0.00,,,0.00,VWS V13.01,2013-07-22 05:55:00,
2013-07-22 01:00:00,73.0,71.8,29.83,NNE,27,0.0,0.0,96,0.00,,,0.00,VWS V13.01,2013-07-22 06:00:00,
2013-07-22 01:05:00,72.8,71.6,29.83,NNE,27,0.0,0.0,96,0.00,,,0.00,VWS V13.01,2013-07-22 06:05:00,
2013-07-22 01:10:00,72.8,71.6,29.83,NNE,27,0.0,0.0,96,0.00,,,0.00,VWS V13.01,2013-07-22 06:10:00,
2013-07-22 01:15:00,72.8,71.6,29.83,NNE,27,0.0,0.0,96,0.00,,,0.00,VWS V13.01,2013-07-22 06:15:00,
2013-07-22 01:20:00,72.8,71.9,29.83,NNE,27,0.0,0.0,97,0.00,,,0.00,VWS V13.01,2013-07-22 06:20:00,
2013-07-22 01:25:00,72.7,71.8,29.83,NNE,27,0.0,0.0,97,0.00,,,0.00,VWS V13.01,2013-07-22 06:25:00,
2013-07-22 01:30:00,72.7,71.8,29.83,NNE,27,0.0,0.0,97,0.00,,,0.00,VWS V13.01,2013-07-22 06:30:00,
2013-07-22 01:35:00,72.5,71.6,29.83,NNE,27,0.0,0.0,97,0.00,,,0.00,VWS V13.01,2013-07-22 06:35:00,
2013-07-22 01:40:00,72.5,71.6,29.83,NNE,27,0.0,0.0,97,0.00,,,0.00,VWS V13.01,2013-07-22 06:40:00,
2013-07-22 01:45:00,72.5,71.6,29.83,NNE,27,0.0,0.0,97,0.00,,,0.00,VWS V13.01,2013-07-22 06:45:00,
2013-07-22 01:50:00,72.3,71.4,29.83,NNE,27,0.0,0.0,97,0.00,,,0.00,VWS V13.01,2013-07-22 06:50:00,
2013-07-22 01:55:00,72.3,71.4,29.83,NNE,27,0.0,0.0,97,0.00,,,0.00,VWS V13.01,2013-07-22 06:55:00,
2013-07-22 02:00:00,72.1,71.5,29.83,NNE,27,0.0,0.0,98,0.00,,,0.00,VWS V13.01,2013-07-22 07:00:00,
2013-07-22 02:05:00,72.1,71.8,29.83,NNE,27,0.0,0.0,99,0.00,,,0.00,VWS V13.01,2013-07-22 07:05:00,
2013-07-22 02:10:00,72.1,71.8,29.83,NNE,27,0.0,0.0,99,0.00,,,0.00,VWS V13.01,2013-07-22 07:10:00,
2013-07-22 02:15:00,71.9,71.3,29.83,NNE,27,0.0,0.0,98,0.00,,,0.00,VWS V13.01,2013-07-22 07:15:00,
2013-07-22 02:20:00,71.9,71.3,29.83,NNE,27,0.0,0.0,98,0.00,,,0.00,VWS V13.01,2013-07-22 07:20:00,
2013-07-22 02:25:00,71.8,71.8,29.83,NNE,27,0.0,0.0,100,0.00,,,0.00,VWS V13.01,2013-07-22 07:25:00,
2013-07-22 02:30:00,71.8,71.8,29.83,NNE,27,0.0,0.0,100,0.00,,,0.00,VWS V13.01,2013-07-22 07:30:00,
2013-07-22 02:35:00,71.6,71.6,29.83,NNE,27,0.0,0.0,100,0.00,,,0.00,VWS V13.01,2013-07-22 07:35:00,
2013-07-22 02:40:00,71.6,71.6,29.83,NNE,27,0.0,0.0,100,0.00,,,0.00,VWS V13.01,2013-07-22 07:40:00,
2013-07-22 02:45:00,71.4,71.4,29.83,NNE,27,0.0,0.0,100,0.00,,,0.00,VWS V13.01,2013-07-22 07:45:00,
2013-07-22 02:50:00,71.4,71.4,29.83,NNE,27,0.0,0.0,100,0.00,,,0.00,VWS V13.01,2013-07-22 07:50:00,
2013-07-22 02:55:00,71.4,71.4,29.83,NNE,27,0.0,0.0,100,0.00,,,0.00,VWS V13.01,2013-07-22 07:55:00,
2013-07-22 03:00:00,71.6,71.6,29.86,NW,311,3.1,4.9,100,0.00,,,0.00,VWS V13.01,2013-07-22 08:00:00,
2013-07-22 03:05:00,72.7,70.5,29.86,WNW,298,4.0,5.8,93,0.00,,,0.00,VWS V13.01,2013-07-22 08:05:00,
2013-07-22 03:10:00,73.9,69.5,29.86,NW,308,3.6,3.6,86,0.00,,,0.00,VWS V13.01,2013-07-22 08:10:00,
2013-07-22 03:15:00,75.0,69.1,29.83,NW,314,0.0,0.0,82,0.00,,,0.00,VWS V13.01,2013-07-22 08:15:00,
2013-07-22 03:20:00,75.4,69.8,29.83,NW,316,0.0,0.0,83,0.00,,,0.00,VWS V13.01,2013-07-22 08:20:00,
2013-07-22 03:25:00,75.5,69.3,29.83,NW,316,0.0,0.0,81,0.00,,,0.00,VWS V13.01,2013-07-22 08:25:00,
2013-07-22 03:30:00,75.5,68.2,29.83,WNW,295,3.6,4.0,78,0.00,,,0.00,VWS V13.01,2013-07-22 08:30:00,
2013-07-22 03:35:00,75.9,67.8,29.83,WNW,300,0.0,0.0,76,0.00,,,0.00,VWS V13.01,2013-07-22 08:35:00,
2013-07-22 03:40:00,75.9,68.6,29.83,SSW,213,2.2,2.2,78,0.00,,,0.00,VWS V13.01,2013-07-22 08:40:00,
2013-07-22 03:45:00,75.4,68.8,29.83,SSW,213,0.0,0.0,80,0.00,,,0.00,VWS V13.01,2013-07-22 08:45:00,
2013-07-22 03:50:00,75.2,68.6,29.83,SSW,211,0.0,0.0,80,0.00,,,0.00,VWS V13.01,2013-07-22 08:50:00,
2013-07-22 03:55:00,75.0,68.4,29.83,SW,222,0.0,0.0,80,0.00,,,0.00,VWS V13.01,2013-07-22 08:55:00,
2013-07-22 04:00:00,75.2,64.3,29.83,WNW,296,3.1,5.4,69,0.00,,,0.00,VWS V13.01,2013-07-22 09:00:00,
2013-07-22 04:05:00,77.2,62.2,29.83,NNW,327,4.0,5.4,60,0.00,,,0.00,VWS V13.01,2013-07-22 09:05:00,
2013-07-22 04:10:00,77.9,62.4,29.83,West,281,3.1,4.0,59,0.00,,,0.00,VWS V13.01,2013-07-22 09:10:00,
2013-07-22 04:15:00,78.2,60.8,29.83,NW,308,4.0,4.9,55,0.00,,,0.00,VWS V13.01,2013-07-22 09:15:00,
2013-07-22 04:20:00,78.4,60.9,29.83,WNW,302,4.0,5.4,55,0.00,,,0.00,VWS V13.01,2013-07-22 09:20:00,
2013-07-22 04:25:00,78.6,60.1,29.83,NW,319,3.1,6.3,53,0.00,,,0.00,VWS V13.01,2013-07-22 09:25:00,
2013-07-22 04:30:00,78.6,60.1,29.83,WSW,252,2.7,3.6,53,0.00,,,0.00,VWS V13.01,2013-07-22 09:30:00,
2013-07-22 04:35:00,78.2,59.7,29.83,South,170,4.0,4.0,53,0.00,,,0.00,VWS V13.01,2013-07-22 09:35:00,
2013-07-22 04:40:00,78.1,60.1,29.83,SSE,147,0.0,3.1,54,0.00,,,0.00,VWS V13.01,2013-07-22 09:40:00,
2013-07-22 04:45:00,77.7,59.8,29.80,SSE,157,3.1,3.6,54,0.00,,,0.00,VWS V13.01,2013-07-22 09:45:00,
2013-07-22 04:50:00,77.5,59.1,29.80,West,261,2.2,2.7,53,0.00,,,0.00,VWS V13.01,2013-07-22 09:50:00,
2013-07-22 04:55:00,77.0,59.6,29.80,WSW,245,3.1,3.1,55,0.00,,,0.00,VWS V13.01,2013-07-22 09:55:00,
2013-07-22 05:00:00,76.4,59.6,29.80,SSE,158,2.7,4.0,56,0.00,,,0.00,VWS V13.01,2013-07-22 10:00:00,
2013-07-22 05:05:00,76.3,60.9,29.80,SSE,167,2.7,2.7,59,0.00,,,0.00,VWS V13.01,2013-07-22 10:05:00,
2013-07-22 05:10:00,75.9,61.0,29.80,SW,229,4.0,4.0,60,0.00,,,0.00,VWS V13.01,2013-07-22 10:10:00,
2013-07-22 05:15:00,75.5,61.6,29.80,South,188,3.1,4.0,62,0.00,,,0.00,VWS V13.01,2013-07-22 10:15:00,
2013-07-22 05:20:00,75.4,61.9,29.80,SW,228,2.7,4.0,63,0.00,,,0.00,VWS V13.01,2013-07-22 10:20:00,
2013-07-22 05:25:00,75.2,62.6,29.80,SSW,197,4.0,4.0,65,0.00,,,0.00,VWS V13.01,2013-07-22 10:25:00,
2013-07-22 05:30:00,75.0,62.9,29.80,WSW,238,3.6,3.6,66,0.00,,,0.00,VWS V13.01,2013-07-22 10:30:00,
2013-07-22 05:35:00,74.8,63.1,29.80,WSW,238,4.0,4.5,67,0.00,,,0.00,VWS V13.01,2013-07-22 10:35:00,
2013-07-22 05:40:00,74.6,63.8,29.80,WSW,258,2.2,2.7,69,0.00,,,0.00,VWS V13.01,2013-07-22 10:40:00,
2013-07-22 05:45:00,74.5,64.0,29.83,West,263,2.7,3.6,70,0.00,,,0.00,VWS V13.01,2013-07-22 10:45:00,
2013-07-22 05:50:00,74.3,64.3,29.83,WSW,248,3.1,3.1,71,0.00,,,0.00,VWS V13.01,2013-07-22 10:50:00,
2013-07-22 05:55:00,74.1,64.1,29.83,WSW,252,0.0,0.0,71,0.00,,,0.00,VWS V13.01,2013-07-22 10:55:00,
2013-07-22 06:00:00,74.1,64.1,29.83,WSW,252,0.0,0.0,71,0.00,,,0.00,VWS V13.01,2013-07-22 11:00:00,
2013-07-22 06:05:00,73.9,63.5,29.83,WSW,257,0.0,0.0,70,0.00,,,0.00,VWS V13.01,2013-07-22 11:05:00,
2013-07-22 06:10:00,73.7,63.4,29.83,WSW,257,0.0,0.0,70,0.00,,,0.00,VWS V13.01,2013-07-22 11:10:00,
2013-07-22 06:15:00,73.4,63.0,29.83,WSW,257,0.0,0.0,70,0.00,,,0.00,VWS V13.01,2013-07-22 11:15:00,
2013-07-22 06:20:00,73.2,63.2,29.83,WSW,257,0.0,0.0,71,0.00,,,0.00,VWS V13.01,2013-07-22 11:20:00,
2013-07-22 06:25:00,72.7,63.5,29.83,WNW,299,0.0,0.0,73,0.00,,,0.00,VWS V13.01,2013-07-22 11:25:00,
2013-07-22 06:30:00,72.3,62.4,29.83,NE,38,2.7,2.7,71,0.00,,,0.00,VWS V13.01,2013-07-22 11:30:00,
2013-07-22 06:35:00,72.1,63.8,29.83,NE,35,3.6,3.6,75,0.00,,,0.00,VWS V13.01,2013-07-22 11:35:00,
2013-07-22 06:40:00,71.6,62.9,29.83,NE,35,2.7,2.7,74,0.00,,,0.00,VWS V13.01,2013-07-22 11:40:00,
2013-07-22 06:45:00,71.2,61.3,29.86,NE,35,0.0,0.0,71,0.00,,,0.00,VWS V13.01,2013-07-22 11:45:00,
2013-07-22 06:50:00,71.0,61.2,29.86,NE,35,0.0,0.0,71,0.00,,,0.00,VWS V13.01,2013-07-22 11:50:00,
2013-07-22 06:55:00,70.9,61.8,29.86,NE,35,0.0,0.0,73,0.00,,,0.00,VWS V13.01,2013-07-22 11:55:00,
2013-07-22 07:00:00,70.9,61.8,29.86,NE,35,0.0,0.0,73,0.00,,,0.00,VWS V13.01,2013-07-22 12:00:00,
2013-07-22 07:05:00,70.7,62.0,29.86,NE,35,0.0,0.0,74,0.00,,,0.00,VWS V13.01,2013-07-22 12:05:00,
2013-07-22 07:10:00,70.5,61.8,29.86,NE,35,0.0,0.0,74,0.00,,,0.00,VWS V13.01,2013-07-22 12:10:00,
2013-07-22 07:15:00,70.3,62.0,29.86,NNE,18,0.0,0.0,75,0.00,,,0.00,VWS V13.01,2013-07-22 12:15:00,
2013-07-22 07:19:00,70.3,61.3,29.86,NNE,18,0.0,0.0,73,0.00,,,0.00,VWS V13.01,2013-07-22 12:19:00,
2013-07-22 07:24:00,70.1,60.7,29.86,North,7,2.7,2.7,72,0.00,,,0.00,VWS V13.01,2013-07-22 12:24:00,
2013-07-22 07:29:00,70.1,62.2,29.89,North,2,3.1,3.6,76,0.00,,,0.00,VWS V13.01,2013-07-22 12:29:00,
2013-07-22 07:34:00,70.1,63.0,29.89,NNE,25,3.6,4.0,78,0.00,,,0.00,VWS V13.01,2013-07-22 12:34:00,
2013-07-22 07:39:00,70.5,63.3,29.89,NNW,334,4.9,4.9,78,0.00,,,0.00,VWS V13.01,2013-07-22 12:39:00,
2013-07-22 07:44:00,71.6,63.6,29.89,North,359,3.6,3.6,76,0.00,,,0.00,VWS V13.01,2013-07-22 12:44:00,
2013-07-22 07:49:00,72.5,64.1,29.89,NNW,345,3.1,4.0,75,0.00,,,0.00,VWS V13.01,2013-07-22 12:49:00,
2013-07-22 07:54:00,73.2,63.2,29.89,North,8,4.9,6.3,71,0.00,,,0.00,VWS V13.01,2013-07-22 12:54:00,
2013-07-22 07:59:00,73.9,62.3,29.92,NW,310,7.6,7.6,67,0.00,,,0.00,VWS V13.01,2013-07-22 12:59:00,
2013-07-22 08:04:00,74.1,62.5,29.92,North,353,5.4,5.4,67,0.00,,,0.00,VWS V13.01,2013-07-22 13:04:00,
2013-07-22 08:09:00,74.3,62.6,29.92,North,2,2.2,2.2,67,0.00,,,0.00,VWS V13.01,2013-07-22 13:09:00,
2013-07-22 08:14:00,74.3,62.6,29.92,NE,50,3.6,3.6,67,0.00,,,0.00,VWS V13.01,2013-07-22 13:14:00,
2013-07-22 08:19:00,74.3,63.0,29.92,NNE,29,3.6,3.6,68,0.00,,,0.00,VWS V13.01,2013-07-22 13:19:00,
2013-07-22 08:24:00,74.1,62.5,29.92,NE,49,2.2,2.7,67,0.00,,,0.00,VWS V13.01,2013-07-22 13:24:00,
2013-07-22 08:29:00,74.3,62.2,29.92,NNW,339,0.0,0.0,66,0.00,,,0.00,VWS V13.01,2013-07-22 13:29:00,
2013-07-22 08:34:00,74.3,61.8,29.92,NE,36,0.0,0.0,65,0.00,,,0.00,VWS V13.01,2013-07-22 13:34:00,
2013-07-22 08:39:00,74.3,62.6,29.92,ENE,63,0.0,0.0,67,0.00,,,0.00,VWS V13.01,2013-07-22 13:39:00,
2013-07-22 08:44:00,74.3,62.6,29.92,NE,53,0.0,0.0,67,0.00,,,0.00,VWS V13.01,2013-07-22 13:44:00,
2013-07-22 08:49:00,74.3,62.2,29.92,NW,323,0.0,0.0,66,0.00,,,0.00,VWS V13.01,2013-07-22 13:49:00,
2013-07-22 08:54:00,74.3,62.2,29.92,ESE,114,3.1,3.1,66,0.00,,,0.00,VWS V13.01,2013-07-22 13:54:00,
2013-07-22 08:59:00,74.3,62.2,29.92,SSW,194,0.0,0.0,66,0.00,,,0.00,VWS V13.01,2013-07-22 13:59:00,
2013-07-22 09:04:00,74.5,61.9,29.92,SSW,200,0.0,3.1,65,0.00,,,0.00,VWS V13.01,2013-07-22 14:04:00,
2013-07-22 09:09:00,74.6,61.2,29.92,ENE,64,2.2,3.1,63,0.00,,,0.00,VWS V13.01,2013-07-22 14:09:00,
2013-07-22 09:14:00,74.8,61.4,29.95,ESE,109,2.7,2.7,63,0.00,,,0.00,VWS V13.01,2013-07-22 14:14:00,
2013-07-22 09:19:00,74.8,61.8,29.95,East,94,3.1,3.1,64,0.00,,,0.00,VWS V13.01,2013-07-22 14:19:00,
2013-07-22 09:24:00,75.0,61.1,29.95,ESE,117,3.6,3.6,62,0.00,,,0.00,VWS V13.01,2013-07-22 14:24:00,
2013-07-22 09:29:00,75.2,61.3,29.95,ESE,102,0.0,2.2,62,0.00,,,0.00,VWS V13.01,2013-07-22 14:29:00,
2013-07-22 09:34:00,75.4,61.0,29.95,ESE,107,3.1,3.1,61,0.00,,,0.00,VWS V13.01,2013-07-22 14:34:00,
2013-07-22 09:39:00,75.7,61.8,29.95,ESE,106,3.1,4.5,62,0.00,,,0.00,VWS V13.01,2013-07-22 14:39:00,
2013-07-22 09:44:00,75.9,62.0,29.92,ENE,78,3.6,6.7,62,0.00,,,0.00,VWS V13.01,2013-07-22 14:44:00,
2013-07-22 09:49:00,76.3,61.8,29.92,ENE,73,3.6,5.8,61,0.00,,,0.00,VWS V13.01,2013-07-22 14:49:00,
2013-07-22 09:54:00,76.6,62.2,29.92,East,98,8.1,8.1,61,0.00,,,0.00,VWS V13.01,2013-07-22 14:54:00,
2013-07-22 09:59:00,77.0,62.5,29.92,SSE,152,4.0,4.9,61,0.00,,,0.00,VWS V13.01,2013-07-22 14:59:00,
2013-07-22 10:04:00,77.3,62.4,29.92,ESE,114,3.1,4.0,60,0.00,,,0.00,VWS V13.01,2013-07-22 15:04:00,
2013-07-22 10:09:00,77.9,62.4,29.92,SSE,150,3.1,3.1,59,0.00,,,0.00,VWS V13.01,2013-07-22 15:09:00,
2013-07-22 10:14:00,78.4,61.4,29.89,SE,126,5.4,5.8,56,0.00,,,0.00,VWS V13.01,2013-07-22 15:14:00,
2013-07-22 10:19:00,78.4,61.4,29.89,ESE,103,2.7,4.5,56,0.00,,,0.00,VWS V13.01,2013-07-22 15:19:00,
2013-07-22 10:24:00,78.8,62.3,29.89,SSE,166,4.0,5.4,57,0.00,,,0.00,VWS V13.01,2013-07-22 15:24:00,
2013-07-22 10:29:00,79.0,62.9,29.92,SSE,150,3.1,3.1,58,0.00,,,0.00,VWS V13.01,2013-07-22 15:29:00,
2013-07-22 10:34:00,79.3,62.8,29.92,SE,128,3.6,3.6,57,0.00,,,0.00,VWS V13.01,2013-07-22 15:34:00,
2013-07-22 10:39:00,79.3,63.3,29.92,SE,143,4.0,4.9,58,0.00,,,0.00,VWS V13.01,2013-07-22 15:39:00,
2013-07-22 10:44:00,79.3,63.3,29.89,SE,129,4.5,5.8,58,0.00,,,0.00,VWS V13.01,2013-07-22 15:44:00,
2013-07-22 10:49:00,79.7,63.1,29.89,ESE,115,3.1,4.0,57,0.00,,,0.00,VWS V13.01,2013-07-22 15:49:00,
2013-07-22 10:54:00,79.9,63.3,29.89,ESE,111,3.1,5.8,57,0.00,,,0.00,VWS V13.01,2013-07-22 15:54:00,
2013-07-22 10:59:00,80.2,63.1,29.89,NE,52,4.0,5.4,56,0.00,,,0.00,VWS V13.01,2013-07-22 15:59:00,
2013-07-22 11:04:00,80.6,62.9,29.89,SE,124,4.0,4.0,55,0.00,,,0.00,VWS V13.01,2013-07-22 16:04:00,
2013-07-22 11:09:00,80.9,62.8,29.89,SE,135,5.8,5.8,54,0.00,,,0.00,VWS V13.01,2013-07-22 16:09:00,
2013-07-22 11:14:00,81.1,63.4,29.92,SE,127,4.0,4.0,55,0.00,,,0.00,VWS V13.01,2013-07-22 16:14:00,
2013-07-22 11:19:00,81.3,63.6,29.92,ESE,109,2.7,2.7,55,0.00,,,0.00,VWS V13.01,2013-07-22 16:19:00,
2013-07-22 11:24:00,81.8,63.0,29.92,South,189,4.9,5.4,53,0.00,,,0.00,VWS V13.01,2013-07-22 16:24:00,
2013-07-22 11:29:00,81.7,62.3,29.92,SE,134,4.0,4.0,52,0.00,,,0.00,VWS V13.01,2013-07-22 16:29:00,
2013-07-22 11:34:00,82.0,62.7,29.92,SE,133,3.1,3.1,52,0.00,,,0.00,VWS V13.01,2013-07-22 16:34:00,
2013-07-22 11:39:00,82.6,62.6,29.92,SE,132,0.0,0.0,51,0.00,,,0.00,VWS V13.01,2013-07-22 16:39:00,
2013-07-22 11:44:00,82.9,63.5,29.92,SSE,161,4.0,4.0,52,0.00,,,0.00,VWS V13.01,2013-07-22 16:44:00,
2013-07-22 11:49:00,82.9,63.5,29.92,SSE,168,2.7,3.6,52,0.00,,,0.00,VWS V13.01,2013-07-22 16:49:00,
2013-07-22 11:54:00,83.5,63.5,29.92,WSW,246,4.0,4.9,51,0.00,,,0.00,VWS V13.01,2013-07-22 16:54:00,
2013-07-22 11:59:00,83.6,63.6,29.92,SE,126,2.7,2.7,51,0.00,,,0.00,VWS V13.01,2013-07-22 16:59:00,
2013-07-22 12:04:00,84.4,63.7,29.92,ENE,72,0.0,0.0,50,0.00,,,0.00,VWS V13.01,2013-07-22 17:04:00,
2013-07-22 12:09:00,85.1,63.8,29.92,SSE,160,0.0,0.0,49,0.00,,,0.00,VWS V13.01,2013-07-22 17:09:00,
2013-07-22 12:14:00,85.6,64.3,29.92,SSW,193,0.0,0.0,49,0.00,,,0.00,VWS V13.01,2013-07-22 17:14:00,
2013-07-22 12:19:00,86.7,64.7,29.92,SSW,204,3.1,3.1,48,0.00,,,0.00,VWS V13.01,2013-07-22 17:19:00,
2013-07-22 12:24:00,86.7,64.7,29.92,WNW,301,0.0,0.0,48,0.00,,,0.00,VWS V13.01,2013-07-22 17:24:00,
2013-07-22 12:29:00,87.2,65.2,29.92,North,355,2.7,2.7,48,0.00,,,0.00,VWS V13.01,2013-07-22 17:29:00,
2013-07-22 12:34:00,87.1,65.0,29.92,WNW,289,2.7,2.7,48,0.00,,,0.00,VWS V13.01,2013-07-22 17:34:00,
2013-07-22 12:39:00,87.1,65.0,29.92,NNW,337,2.7,2.7,48,0.00,,,0.00,VWS V13.01,2013-07-22 17:39:00,
2013-07-22 12:44:00,87.2,65.2,29.92,North,11,2.7,2.7,48,0.00,,,0.00,VWS V13.01,2013-07-22 17:44:00,
2013-07-22 12:49:00,87.4,65.3,29.92,NNE,18,0.0,2.2,48,0.00,,,0.00,VWS V13.01,2013-07-22 17:49:00,
2013-07-22 12:54:00,88.1,65.4,29.92,WNW,296,2.7,2.7,47,0.00,,,0.00,VWS V13.01,2013-07-22 17:54:00,
2013-07-22 12:59:00,89.0,66.2,29.92,NW,320,2.2,4.0,47,0.00,,,0.00,VWS V13.01,2013-07-22 17:59:00,
2013-07-22 13:04:00,89.0,65.0,29.92,East,82,2.7,2.7,45,0.00,,,0.00,VWS V13.01,2013-07-22 18:04:00,
2013-07-22 13:09:00,89.2,66.4,29.92,ESE,114,2.7,3.1,47,0.00,,,0.00,VWS V13.01,2013-07-22 18:09:00,
2013-07-22 13:14:00,89.4,66.5,29.92,East,89,3.1,3.1,47,0.00,,,0.00,VWS V13.01,2013-07-22 18:14:00,
2013-07-22 13:19:00,89.4,65.9,29.92,North,360,0.0,0.0,46,0.00,,,0.00,VWS V13.01,2013-07-22 18:19:00,
2013-07-22 13:25:00,89.4,66.5,29.92,North,3,2.7,2.7,47,0.00,,,0.00,VWS V13.01,2013-07-22 18:25:00,
2013-07-22 13:30:00,89.6,66.7,29.89,ESE,114,4.0,4.0,47,0.00,,,0.00,VWS V13.01,2013-07-22 18:30:00,
2013-07-22 13:35:00,89.2,66.4,29.89,SSE,166,2.2,2.7,47,0.00,,,0.00,VWS V13.01,2013-07-22 18:35:00,
2013-07-22 13:41:00,89.6,67.9,29.89,NNE,16,3.6,3.6,49,0.00,,,0.00,VWS V13.01,2013-07-22 18:41:00,
2013-07-22 13:46:00,90.5,67.5,29.89,North,8,2.7,2.7,47,0.00,,,0.00,VWS V13.01,2013-07-22 18:46:00,
2013-07-22 13:51:00,90.7,67.1,29.89,NW,308,0.0,0.0,46,0.00,,,0.00,VWS V13.01,2013-07-22 18:51:00,
2013-07-22 13:56:00,90.8,67.8,29.89,North,6,2.7,3.1,47,0.00,,,0.00,VWS V13.01,2013-07-22 18:56:00,
2013-07-22 14:01:00,90.7,67.1,29.89,NW,312,4.0,5.8,46,0.00,,,0.00,VWS V13.01,2013-07-22 19:01:00,
2013-07-22 14:06:00,90.1,67.2,29.89,South,185,3.6,4.0,47,0.00,,,0.00,VWS V13.01,2013-07-22 19:06:00,
2013-07-22 14:11:00,89.4,66.5,29.89,NW,323,4.0,4.0,47,0.00,,,0.00,VWS V13.01,2013-07-22 19:11:00,
2013-07-22 14:16:00,89.4,67.1,29.89,West,263,2.7,2.7,48,0.00,,,0.00,VWS V13.01,2013-07-22 19:16:00,
2013-07-22 14:21:00,89.6,67.3,29.89,SW,217,2.7,3.6,48,0.00,,,0.00,VWS V13.01,2013-07-22 19:21:00,
2013-07-22 14:26:00,89.8,67.5,29.89,South,174,5.8,5.8,48,0.00,,,0.00,VWS V13.01,2013-07-22 19:26:00,
2013-07-22 14:32:00,89.4,67.1,29.89,WSW,245,5.8,5.8,48,0.00,,,0.00,VWS V13.01,2013-07-22 19:32:00,
2013-07-22 14:37:00,89.4,67.1,29.89,SSE,157,2.7,3.1,48,0.00,,,0.00,VWS V13.01,2013-07-22 19:37:00,
2013-07-22 14:42:00,89.9,67.6,29.89,ESE,123,4.9,5.8,48,0.00,,,0.00,VWS V13.01,2013-07-22 19:42:00,
2013-07-22 14:47:00,90.1,67.8,29.86,South,174,2.2,3.1,48,0.00,,,0.00,VWS V13.01,2013-07-22 19:47:00,
2013-07-22 14:52:00,89.9,67.0,29.86,SE,131,3.1,4.0,47,0.00,,,0.00,VWS V13.01,2013-07-22 19:52:00,
2013-07-22 14:58:00,89.8,67.5,29.86,SSE,167,6.3,6.3,48,0.00,,,0.00,VWS V13.01,2013-07-22 19:58:00,
2013-07-22 15:03:00,89.6,67.3,29.86,SE,130,2.7,4.0,48,0.00,,,0.00,VWS V13.01,2013-07-22 20:03:00,
2013-07-22 15:08:00,89.8,67.5,29.86,WSW,247,4.0,4.0,48,0.00,,,0.00,VWS V13.01,2013-07-22 20:08:00,
2013-07-22 15:13:00,89.8,67.5,29.86,SE,138,2.7,3.1,48,0.00,,,0.00,VWS V13.01,2013-07-22 20:13:00,
2013-07-22 15:17:00,89.8,67.5,29.86,SSW,213,4.9,5.4,48,0.00,,,0.00,VWS V13.01,2013-07-22 20:17:00,
2013-07-22 15:22:00,89.6,67.3,29.86,SW,226,3.6,3.6,48,0.00,,,0.00,VWS V13.01,2013-07-22 20:22:00,
2013-07-22 15:27:00,89.4,67.7,29.86,South,171,2.7,3.1,49,0.00,,,0.00,VWS V13.01,2013-07-22 20:27:00,
2013-07-22 15:32:00,89.2,67.6,29.86,SE,143,4.0,5.8,49,0.00,,,0.00,VWS V13.01,2013-07-22 20:32:00,
2013-07-22 15:37:00,89.0,68.0,29.86,SE,136,3.1,4.9,50,0.00,,,0.00,VWS V13.01,2013-07-22 20:37:00,
2013-07-22 15:42:00,89.6,67.9,29.86,SSE,150,4.0,5.4,49,0.00,,,0.00,VWS V13.01,2013-07-22 20:42:00,
2013-07-22 15:43:00,89.6,67.9,29.86,ESE,121,3.1,4.0,49,0.00,,,0.00,VWS V13.01,2013-07-22 20:43:00,
2013-07-22 15:48:00,89.9,68.2,29.86,SSE,150,3.6,3.6,49,0.00,,,0.00,VWS V13.01,2013-07-22 20:48:00,
2013-07-22 15:53:00,90.3,68.0,29.86,South,183,3.1,5.4,48,0.00,,,0.00,VWS V13.01,2013-07-22 20:53:00,
2013-07-22 15:58:00,90.3,68.0,29.86,SE,132,2.7,6.3,48,0.00,,,0.00,VWS V13.01,2013-07-22 20:58:00,
2013-07-22 16:03:00,90.3,68.0,29.86,SSE,150,4.0,4.0,48,0.00,,,0.00,VWS V13.01,2013-07-22 21:03:00,
2013-07-22 16:08:00,89.9,67.0,29.86,SSE,165,3.1,3.6,47,0.00,,,0.00,VWS V13.01,2013-07-22 21:08:00,
2013-07-22 16:13:00,89.8,68.1,29.86,ESE,121,5.4,5.8,49,0.00,,,0.00,VWS V13.01,2013-07-22 21:13:00,
2013-07-22 16:18:00,89.2,68.7,29.86,South,180,4.9,5.4,51,0.00,,,0.00,VWS V13.01,2013-07-22 21:18:00,
2013-07-22 16:23:00,89.2,68.2,29.86,South,169,2.7,3.6,50,0.00,,,0.00,VWS V13.01,2013-07-22 21:23:00,
2013-07-22 16:28:00,89.0,68.0,29.86,SE,130,4.9,4.9,50,0.00,,,0.00,VWS V13.01,2013-07-22 21:28:00,
2013-07-22 16:33:00,89.2,68.7,29.86,SE,134,2.7,4.9,51,0.00,,,0.00,VWS V13.01,2013-07-22 21:33:00,
2013-07-22 16:38:00,89.8,68.1,29.86,South,182,3.6,4.0,49,0.00,,,0.00,VWS V13.01,2013-07-22 21:38:00,
2013-07-22 16:43:00,89.4,68.3,29.86,SSE,165,5.4,8.3,50,0.00,,,0.00,VWS V13.01,2013-07-22 21:43:00,
2013-07-22 16:48:00,88.3,67.3,29.86,SE,132,4.0,7.6,50,0.00,,,0.00,VWS V13.01,2013-07-22 21:48:00,
2013-07-22 16:53:00,87.6,66.7,29.86,SSE,155,8.1,8.1,50,0.00,,,0.00,VWS V13.01,2013-07-22 21:53:00,
2013-07-22 16:58:00,85.8,65.0,29.86,South,180,12.8,19.2,50,0.00,,,0.00,VWS V13.01,2013-07-22 21:58:00,
2013-07-22 17:02:00,82.7,63.3,29.86,SW,220,10.5,10.5,52,0.00,,,0.00,VWS V13.01,2013-07-22 22:02:00,
2013-07-22 17:07:00,80.9,62.8,29.86,South,190,5.4,8.3,54,0.00,,,0.00,VWS V13.01,2013-07-22 22:07:00,
2013-07-22 17:12:00,79.0,64.8,29.86,WSW,242,10.1,11.0,62,0.00,,,0.00,VWS V13.01,2013-07-22 22:12:00,
2013-07-22 17:17:00,72.8,64.1,29.89,WSW,248,11.9,13.2,74,0.12,,,0.12,VWS V13.01,2013-07-22 22:17:00,
2013-07-22 17:22:00,70.1,61.9,29.89,West,278,6.3,12.8,75,0.20,,,0.20,VWS V13.01,2013-07-22 22:22:00,
2013-07-22 17:27:00,68.9,63.8,29.89,North,10,2.7,5.8,84,0.28,,,0.28,VWS V13.01,2013-07-22 22:27:00,
2013-07-22 17:33:00,67.8,64.8,29.89,NNE,16,5.4,5.4,90,0.00,,,0.00,VWS V13.01,2013-07-22 22:33:00,
2013-07-22 17:38:00,67.3,65.5,29.89,NNE,22,8.3,8.3,94,0.31,,,0.31,VWS V13.01,2013-07-22 22:38:00,
2013-07-22 17:43:00,67.3,64.9,29.89,North,360,4.0,6.3,92,0.31,,,0.31,VWS V13.01,2013-07-22 22:43:00,
2013-07-22 17:48:00,67.4,65.3,29.86,North,6,2.2,3.1,93,0.31,,,0.31,VWS V13.01,2013-07-22 22:48:00,
2013-07-22 17:53:00,67.6,65.2,29.86,NNE,20,4.0,5.4,92,0.31,,,0.31,VWS V13.01,2013-07-22 22:53:00,
2013-07-22 17:58:00,67.6,65.5,29.86,NE,37,4.0,4.9,93,0.31,,,0.31,VWS V13.01,2013-07-22 22:58:00,
2013-07-22 18:03:00,67.8,66.6,29.83,NNW,338,2.2,2.2,96,0.31,,,0.31,VWS V13.01,2013-07-22 23:03:00,
2013-07-22 18:08:00,68.0,66.5,29.83,NE,51,3.6,5.4,95,0.31,,,0.31,VWS V13.01,2013-07-22 23:08:00,
2013-07-22 18:13:00,68.2,65.4,29.83,NNE,25,5.8,7.6,91,0.31,,,0.35,VWS V13.01,2013-07-22 23:13:00,
2013-07-22 18:18:00,68.3,65.3,29.80,North,4,4.0,5.4,90,0.28,,,0.35,VWS V13.01,2013-07-22 23:18:00,
2013-07-22 18:23:00,68.5,65.2,29.80,NE,36,2.2,3.6,89,0.20,,,0.35,VWS V13.01,2013-07-22 23:23:00,
2013-07-22 18:28:00,69.1,65.7,29.80,NNW,338,2.7,3.1,89,0.08,,,0.35,VWS V13.01,2013-07-22 23:28:00,
2013-07-22 18:33:00,69.2,65.2,29.80,West,266,0.0,4.0,87,0.08,,,0.35,VWS V13.01,2013-07-22 23:33:00,
2013-07-22 18:38:00,69.8,65.7,29.80,SW,217,3.1,4.9,87,0.04,,,0.35,VWS V13.01,2013-07-22 23:38:00,
2013-07-22 18:43:00,70.1,66.4,29.80,SSW,210,3.1,3.1,88,0.04,,,0.35,VWS V13.01,2013-07-22 23:43:00,
2013-07-22 18:48:00,70.3,66.3,29.83,SSE,164,2.7,2.7,87,0.04,,,0.35,VWS V13.01,2013-07-22 23:48:00,
2013-07-22 18:53:00,70.5,66.1,29.83,South,186,2.7,3.1,86,0.04,,,0.35,VWS V13.01,2013-07-22 23:53:00,
2013-07-22 18:58:00,70.9,66.5,29.83,South,172,2.7,2.7,86,0.04,,,0.35,VWS V13.01,2013-07-22 23:58:00,
2013-07-22 19:03:00,71.2,66.8,29.83,South,182,0.0,2.7,86,0.04,,,0.35,VWS V13.01,2013-07-23 00:03:00,
2013-07-22 19:08:00,71.8,67.0,29.83,SSE,167,0.0,0.0,85,0.04,,,0.35,VWS V13.01,2013-07-23 00:08:00,
2013-07-22 19:13:00,72.1,67.4,29.83,WSW,239,2.7,2.7,85,0.04,,,0.35,VWS V13.01,2013-07-23 00:13:00,
2013-07-22 19:18:00,72.5,67.0,29.86,WSW,239,0.0,0.0,83,0.00,,,0.35,VWS V13.01,2013-07-23 00:18:00,
2013-07-22 19:23:00,72.7,66.8,29.86,WSW,239,0.0,0.0,82,0.00,,,0.35,VWS V13.01,2013-07-23 00:23:00,
2013-07-22 19:28:00,72.8,67.7,29.86,NNE,23,2.7,3.1,84,0.00,,,0.35,VWS V13.01,2013-07-23 00:28:00,
2013-07-22 19:33:00,72.7,67.9,29.83,North,8,0.0,0.0,85,0.00,,,0.35,VWS V13.01,2013-07-23 00:33:00,
2013-07-22 19:38:00,72.7,67.9,29.83,NNE,29,0.0,2.7,85,0.00,,,0.35,VWS V13.01,2013-07-23 00:38:00,
2013-07-22 19:43:00,72.7,68.2,29.83,NE,39,0.0,0.0,86,0.00,,,0.35,VWS V13.01,2013-07-23 00:43:00,
2013-07-22 19:48:00,72.5,68.1,29.83,ESE,115,3.1,3.1,86,0.00,,,0.35,VWS V13.01,2013-07-23 00:48:00,
2013-07-22 19:53:00,72.1,67.7,29.83,ESE,120,2.7,2.7,86,0.00,,,0.35,VWS V13.01,2013-07-23 00:53:00,
2013-07-22 19:58:00,72.1,68.0,29.83,SE,132,2.7,2.7,87,0.00,,,0.35,VWS V13.01,2013-07-23 00:58:00,
2013-07-22 20:03:00,72.1,68.0,29.86,SE,130,0.0,0.0,87,0.00,,,0.35,VWS V13.01,2013-07-23 01:03:00,
2013-07-22 20:08:00,71.9,67.5,29.86,ESE,117,0.0,0.0,86,0.00,,,0.35,VWS V13.01,2013-07-23 01:08:00,
2013-07-22 20:13:00,71.9,67.9,29.86,ESE,117,0.0,0.0,87,0.00,,,0.35,VWS V13.01,2013-07-23 01:13:00,
2013-07-22 20:18:00,71.8,67.3,29.86,ESE,117,0.0,0.0,86,0.00,,,0.35,VWS V13.01,2013-07-23 01:18:00,
2013-07-22 20:23:00,71.8,67.3,29.86,ESE,117,0.0,0.0,86,0.00,,,0.35,VWS V13.01,2013-07-23 01:23:00,
2013-07-22 20:28:00,71.8,67.3,29.86,ESE,117,0.0,0.0,86,0.00,,,0.35,VWS V13.01,2013-07-23 01:28:00,
2013-07-22 20:33:00,71.6,67.2,29.86,ESE,117,0.0,0.0,86,0.00,,,0.35,VWS V13.01,2013-07-23 01:33:00,
2013-07-22 20:38:00,71.6,67.8,29.86,ENE,57,0.0,0.0,88,0.00,,,0.35,VWS V13.01,2013-07-23 01:38:00,
2013-07-22 20:43:00,71.6,68.2,29.86,ENE,57,0.0,0.0,89,0.00,,,0.35,VWS V13.01,2013-07-23 01:43:00,
2013-07-22 20:48:00,71.4,68.3,29.83,ENE,57,0.0,0.0,90,0.00,,,0.35,VWS V13.01,2013-07-23 01:48:00,
2013-07-22 20:53:00,71.4,68.6,29.83,NE,51,0.0,0.0,91,0.00,,,0.35,VWS V13.01,2013-07-23 01:53:00,
2013-07-22 20:58:00,71.2,69.1,29.83,NE,37,3.1,3.6,93,0.00,,,0.35,VWS V13.01,2013-07-23 01:58:00,
2013-07-22 21:03:00,71.0,69.2,29.83,NE,37,0.0,0.0,94,0.00,,,0.35,VWS V13.01,2013-07-23 02:03:00,
2013-07-22 21:08:00,70.9,69.4,29.83,NE,37,0.0,0.0,95,0.00,,,0.35,VWS V13.01,2013-07-23 02:08:00,
2013-07-22 21:13:00,70.7,69.2,29.83,NNW,344,0.0,0.0,95,0.00,,,0.35,VWS V13.01,2013-07-23 02:13:00,
2013-07-22 21:18:00,70.7,69.5,29.86,NE,36,0.0,2.7,96,0.00,,,0.35,VWS V13.01,2013-07-23 02:18:00,
2013-07-22 21:23:00,70.7,69.5,29.86,NE,37,0.0,0.0,96,0.00,,,0.35,VWS V13.01,2013-07-23 02:23:00,
2013-07-22 21:28:00,70.5,69.3,29.86,NE,37,0.0,0.0,96,0.00,,,0.35,VWS V13.01,2013-07-23 02:28:00,
2013-07-22 21:33:00,70.5,69.6,29.86,NE,34,0.0,0.0,97,0.00,,,0.35,VWS V13.01,2013-07-23 02:33:00,
2013-07-22 21:38:00,70.3,69.7,29.86,NNE,24,2.2,2.2,98,0.00,,,0.35,VWS V13.01,2013-07-23 02:38:00,
2013-07-22 21:43:00,70.3,69.7,29.86,NNE,17,2.7,2.7,98,0.00,,,0.35,VWS V13.01,2013-07-23 02:43:00,
2013-07-22 21:48:00,70.3,70.3,29.86,NE,36,3.1,3.1,100,0.00,,,0.35,VWS V13.01,2013-07-23 02:48:00,
2013-07-22 21:53:00,70.3,70.3,29.86,NNE,26,2.2,3.1,100,0.00,,,0.35,VWS V13.01,2013-07-23 02:53:00,
2013-07-22 21:58:00,70.3,70.0,29.86,NE,34,0.0,2.7,99,0.00,,,0.35,VWS V13.01,2013-07-23 02:58:00,
2013-07-22 22:03:00,70.3,69.7,29.86,NNE,27,0.0,3.1,98,0.00,,,0.35,VWS V13.01,2013-07-23 03:03:00,
2013-07-22 22:08:00,70.5,69.6,29.86,North,10,0.0,2.2,97,0.00,,,0.35,VWS V13.01,2013-07-23 03:08:00,
2013-07-22 22:13:00,70.5,69.0,29.86,NNW,334,0.0,2.2,95,0.00,,,0.35,VWS V13.01,2013-07-23 03:13:00,
2013-07-22 22:18:00,70.7,68.9,29.86,NE,34,0.0,0.0,94,0.00,,,0.35,VWS V13.01,2013-07-23 03:18:00,
2013-07-22 22:23:00,70.7,68.6,29.86,NE,39,2.2,2.7,93,0.00,,,0.35,VWS V13.01,2013-07-23 03:23:00,
2013-07-22 22:28:00,70.9,68.4,29.86,NNE,14,0.0,0.0,92,0.00,,,0.35,VWS V13.01,2013-07-23 03:28:00,
2013-07-22 22:33:00,71.0,68.9,29.86,NNE,14,0.0,0.0,93,0.00,,,0.35,VWS V13.01,2013-07-23 03:33:00,
2013-07-22 22:38:00,70.9,68.4,29.86,NE,53,2.7,2.7,92,0.00,,,0.35,VWS V13.01,2013-07-23 03:38:00,
2013-07-22 22:43:00,70.9,68.1,29.86,NE,48,0.0,0.0,91,0.00,,,0.35,VWS V13.01,2013-07-23 03:43:00,
2013-07-22 22:48:00,71.0,68.3,29.86,NE,48,0.0,0.0,91,0.00,,,0.35,VWS V13.01,2013-07-23 03:48:00,
2013-07-22 22:53:00,71.0,68.3,29.86,NE,48,0.0,0.0,91,0.00,,,0.35,VWS V13.01,2013-07-23 03:53:00,
2013-07-22 22:58:00,71.0,68.6,29.86,NE,48,0.0,0.0,92,0.00,,,0.35,VWS V13.01,2013-07-23 03:58:00,
2013-07-22 23:01:00,70.9,68.4,29.86,NE,48,0.0,0.0,92,0.00,,,0.35,VWS V13.01,2013-07-23 04:01:00,
2013-07-22 23:06:00,70.9,68.4,29.86,NE,48,0.0,0.0,92,0.00,,,0.35,VWS V13.01,2013-07-23 04:06:00,
2013-07-22 23:11:00,70.9,68.4,29.86,NE,48,0.0,0.0,92,0.00,,,0.35,VWS V13.01,2013-07-23 04:11:00,
2013-07-22 23:16:00,70.7,68.6,29.86,NE,46,0.0,0.0,93,0.00,,,0.35,VWS V13.01,2013-07-23 04:16:00,
2013-07-22 23:21:00,70.7,68.9,29.86,NE,46,0.0,0.0,94,0.00,,,0.35,VWS V13.01,2013-07-23 04:21:00,
2013-07-22 23:26:00,70.5,68.4,29.86,NE,39,0.0,0.0,93,0.00,,,0.35,VWS V13.01,2013-07-23 04:26:00,
2013-07-22 23:31:00,70.5,68.4,29.86,NE,39,0.0,0.0,93,0.00,,,0.35,VWS V13.01,2013-07-23 04:31:00,
2013-07-22 23:36:00,70.5,68.7,29.86,NE,39,0.0,0.0,94,0.00,,,0.35,VWS V13.01,2013-07-23 04:36:00,
2013-07-22 23:41:00,70.5,68.7,29.86,NE,39,0.0,0.0,94,0.00,,,0.35,VWS V13.01,2013-07-23 04:41:00,
2013-07-22 23:46:00,70.5,68.7,29.86,NE,39,0.0,0.0,94,0.00,,,0.35,VWS V13.01,2013-07-23 04:46:00,
2013-07-22 23:51:00,70.3,68.5,29.86,NE,39,0.0,0.0,94,0.00,,,0.35,VWS V13.01,2013-07-23 04:51:00,
2013-07-22 23:56:00,70.3,68.8,29.86,NE,39,0.0,0.0,95,0.00,,,0.35,VWS V13.01,2013-07-23 04:56:00,